Burton Latimer, United Kingdom
Current Conditions -  °F | °C
As of 6:50 PM on Sunday 23 Nov 2014 (Local Time) from EGXT Reporting Station
Broken Clouds Broken Clouds  
Wind Chill: 40°   Ceiling: 19000
Heat Index: 45°   Visibility: 6mi
Dew Point: 41°   Wind: 8mph
Humidity: 87%   Direction: 300°WNW
Pressure: 30.06"   Gusts: NA
Location:  52.36°N, 0.68°W
Report Text: EGXT 231850Z AUTO 30007KT 9999 BKN190/// 07/05 Q1018
Loading
Personal Weather Stations






























Interactive Weather Map New forecast layout! Learn more

10-Day Weather Forecast

Advertisements
Track Severe Weather on mobile